11°C Temp
0°C Dewpoint
47% Humidity
Temperature
19 KM/H
12 MPH
10 KTS
310°
North West

Wind Speed
Clear
Conditions
Pressure 1029.92 (hPa) - 30.41 (in)
Visibility 6.2 (mi) - 10.0 (km)

Current Conditions
UKLI
Location 9(km)
Metar :UKLI 021000Z 31005MPS 260V340 CAVOK 11/M00 Q1030 R28/090070 NOSIG
Tue 2nd March 13:00 pm

Airport